Time;durP1;ratioP1;P1;durP2;ratioP2;P2;SDS_P1;SDS_P2;PMS_P1;PMS_P2;Temp;Humidity;BMP_temperature;BMP_pressure;BME280_temperature;BME280_humidity;BME280_pressure;Samples;Min_cycle;Max_cycle;Signal;HPM_P1;HPM_P2
2021/01/16 00:00:49;;;;;;;21.60;13.07;;;2.40;93.50;;;;;;4785839;29;20047;-91
2021/01/16 00:03:30;;;;;;;24.47;15.23;;;2.30;93.50;;;;;;4773664;29;20043;-93
2021/01/16 00:06:04;;;;;;;22.90;13.83;;;2.30;93.50;;;;;;4767325;29;20415;-83
2021/01/16 00:08:42;;;;;;;17.13;11.00;;;2.30;93.50;;;;;;4766902;29;20043;-83
2021/01/16 00:11:14;;;;;;;23.13;14.13;;;2.30;93.50;;;;;;4784125;29;20088;-82
2021/01/16 00:14:04;;;;;;;21.15;13.05;;;2.30;93.50;;;;;;4764641;29;20059;-83
2021/01/16 00:16:41;;;;;;;19.20;13.00;;;2.30;93.50;;;;;;4783049;29;20062;-83
2021/01/16 00:19:16;;;;;;;18.27;11.57;;;2.30;93.50;;;;;;4759955;29;20059;-83
2021/01/16 00:21:44;;;;;;;17.90;12.40;;;2.30;93.50;;;;;;4777308;29;20054;-83
2021/01/16 00:24:11;;;;;;;19.50;12.33;;;2.30;93.60;;;;;;4784499;29;20042;-91
2021/01/16 00:26:38;;;;;;;18.30;12.93;;;2.40;93.60;;;;;;4782079;29;20051;-92
2021/01/16 00:29:10;;;;;;;20.87;12.90;;;2.30;93.60;;;;;;4784286;29;20053;-83
2021/01/16 00:31:56;;;;;;;;;;;2.40;93.60;;;;;;4782683;29;20050;-83
2021/01/16 00:34:29;;;;;;;22.20;12.83;;;2.40;93.60;;;;;;4793881;29;20008;-83
2021/01/16 00:37:07;;;;;;;20.93;12.73;;;2.30;93.50;;;;;;4770299;29;20054;-83
2021/01/16 00:39:34;;;;;;;17.77;11.65;;;2.30;93.50;;;;;;4783279;29;20055;-83
2021/01/16 00:42:06;;;;;;;17.03;10.47;;;2.30;93.50;;;;;;4776287;29;20039;-92
2021/01/16 00:44:40;;;;;;;20.90;13.07;;;2.30;93.60;;;;;;4770580;29;20059;-83
2021/01/16 00:47:14;;;;;;;17.30;11.23;;;2.30;93.60;;;;;;4758465;29;20047;-83
2021/01/16 00:49:52;;;;;;;18.90;11.20;;;2.30;93.60;;;;;;4783727;29;20035;-83
2021/01/16 00:52:42;;;;;;;18.77;12.53;;;2.30;93.60;;;;;;4763638;29;20043;-83
2021/01/16 00:55:16;;;;;;;14.87;9.80;;;2.30;93.60;;;;;;4798677;29;20062;-83
2021/01/16 00:57:53;;;;;;;17.83;11.00;;;2.30;93.60;;;;;;4786231;29;20059;-83
2021/01/16 01:00:31;;;;;;;17.00;11.33;;;2.30;93.60;;;;;;4783287;29;20062;-83
2021/01/16 01:03:15;;;;;;;14.77;9.87;;;2.30;93.60;;;;;;4783893;29;20030;-83
2021/01/16 01:05:56;;;;;;;18.63;11.40;;;2.30;93.60;;;;;;4783581;29;20049;-83
2021/01/16 01:08:32;;;;;;;21.07;12.87;;;2.30;93.60;;;;;;4786138;29;20039;-91
2021/01/16 01:11:38;;;;;;;17.07;11.57;;;2.30;93.50;;;;;;4778414;29;20077;-92
2021/01/16 01:14:37;;;;;;;17.60;11.47;;;2.30;93.50;;;;;;4778526;29;20047;-83
2021/01/16 01:17:21;;;;;;;17.70;11.87;;;2.30;93.50;;;;;;4782579;29;20055;-83
2021/01/16 01:19:56;;;;;;;16.63;11.40;;;2.30;93.50;;;;;;4748777;30;20043;-91
2021/01/16 01:22:25;;;;;;;15.90;10.43;;;2.30;93.50;;;;;;4735729;30;20989;-83
2021/01/16 01:25:11;;;;;;;15.57;10.60;;;2.30;93.50;;;;;;4750483;30;20048;-83
2021/01/16 01:27:41;;;;;;;14.10;9.47;;;2.20;93.40;;;;;;4733918;30;20558;-83
2021/01/16 01:30:09;;;;;;;17.40;9.97;;;2.30;93.50;;;;;;4744305;30;20405;-83
2021/01/16 01:32:45;;;;;;;15.73;10.07;;;2.30;93.50;;;;;;4756898;30;20044;-82
2021/01/16 01:35:15;;;;;;;17.97;11.40;;;2.30;93.40;;;;;;4749582;30;20070;-83
2021/01/16 01:37:44;;;;;;;16.93;11.17;;;2.30;93.40;;;;;;4744734;30;20044;-93
2021/01/16 01:40:14;;;;;;;17.93;11.60;;;2.30;93.40;;;;;;4742548;30;20530;-91
2021/01/16 01:42:49;;;;;;;18.10;11.53;;;2.30;93.40;;;;;;4765362;30;20136;-83
2021/01/16 01:45:17;;;;;;;14.87;9.27;;;2.30;93.40;;;;;;4767607;29;20404;-83
2021/01/16 01:48:06;;;;;;;19.67;11.53;;;2.30;93.40;;;;;;4783642;29;20051;-83
2021/01/16 01:50:52;;;;;;;17.77;11.10;;;2.30;93.20;;;;;;4781648;29;20561;-83
2021/01/16 01:53:20;;;;;;;16.53;10.53;;;2.30;93.30;;;;;;4769975;29;20482;-90
2021/01/16 01:55:55;;;;;;;16.87;10.83;;;2.30;93.20;;;;;;4787485;29;20046;-92
2021/01/16 01:58:27;;;;;;;20.87;12.57;;;2.30;93.30;;;;;;4785628;29;20043;-84
2021/01/16 02:01:12;;;;;;;14.07;9.73;;;2.30;93.20;;;;;;4776480;29;20527;-82
2021/01/16 02:03:46;;;;;;;13.20;8.57;;;2.20;93.10;;;;;;4799268;29;20062;-82
2021/01/16 02:06:34;;;;;;;10.80;7.03;;;2.30;93.20;;;;;;4770316;29;20050;-83
2021/01/16 02:09:02;;;;;;;12.27;8.00;;;2.30;93.20;;;;;;4786532;29;20066;-83
2021/01/16 02:11:40;;;;;;;13.83;9.57;;;2.30;93.20;;;;;;4786130;29;20066;-83
2021/01/16 02:14:07;;;;;;;14.83;11.17;;;2.30;93.20;;;;;;4769257;29;20051;-83
2021/01/16 02:16:45;;;;;;;17.67;11.37;;;2.30;93.20;;;;;;4785531;29;20035;-83
2021/01/16 02:19:38;;;;;;;17.03;11.13;;;2.30;93.10;;;;;;4785096;29;20909;-83
2021/01/16 02:22:13;;;;;;;14.23;9.17;;;2.30;93.20;;;;;;4784633;29;20061;-83
2021/01/16 02:25:02;;;;;;;16.35;10.55;;;2.30;93.20;;;;;;4769700;29;20039;-83
2021/01/16 02:28:17;;;;;;;13.87;8.47;;;2.20;93.10;;;;;;4785160;29;20047;-82
2021/01/16 02:30:46;;;;;;;15.50;10.63;;;2.30;93.10;;;;;;4773028;29;20058;-83
2021/01/16 02:33:26;;;;;;;13.77;9.90;;;2.30;93.10;;;;;;4783223;29;20066;-83
2021/01/16 02:36:07;;;;;;;12.75;9.18;;;2.30;93.10;;;;;;4785454;29;20062;-83
2021/01/16 02:38:44;;;;;;;14.57;9.37;;;2.20;93.00;;;;;;4772846;29;20394;-82
2021/01/16 02:41:52;;;;;;;10.63;8.10;;;2.30;93.00;;;;;;4766456;29;20043;-82
2021/01/16 02:44:40;;;;;;;14.13;9.17;;;2.30;93.00;;;;;;4781010;29;20408;-88
2021/01/16 02:47:44;;;;;;;14.93;9.80;;;2.30;93.00;;;;;;4770402;29;20518;-88
2021/01/16 02:50:22;;;;;;;14.07;9.80;;;2.20;92.90;;;;;;4796640;29;20055;-87
2021/01/16 02:52:56;;;;;;;16.03;11.40;;;2.20;92.80;;;;;;4786015;29;20043;-88
2021/01/16 02:55:32;;;;;;;18.20;10.20;;;2.20;92.80;;;;;;4779237;29;20767;-87
2021/01/16 02:58:02;;;;;;;14.03;9.93;;;2.20;92.80;;;;;;4784070;29;20043;-88
2021/01/16 03:00:29;;;;;;;13.67;10.00;;;2.20;92.80;;;;;;4797472;29;20415;-88
2021/01/16 03:03:08;;;;;;;16.90;10.07;;;2.20;92.80;;;;;;4785483;29;20538;-88
2021/01/16 03:05:53;;;;;;;16.63;10.70;;;2.20;92.70;;;;;;4763531;29;20063;-87
2021/01/16 03:08:33;;;;;;;11.13;7.28;;;2.20;92.70;;;;;;4769158;29;20051;-82
2021/01/16 03:11:06;;;;;;;10.37;7.50;;;2.20;92.80;;;;;;4784892;29;20065;-83
2021/01/16 03:13:36;;;;;;;14.47;10.07;;;2.30;92.80;;;;;;4780157;29;20158;-83
2021/01/16 03:16:34;;;;;;;17.03;10.10;;;2.20;92.80;;;;;;4785166;29;20073;-83
2021/01/16 03:19:18;;;;;;;17.38;12.35;;;2.20;92.70;;;;;;4783330;29;20042;-83
2021/01/16 03:22:11;;;;;;;15.20;10.33;;;2.20;92.60;;;;;;4784282;29;20047;-83
2021/01/16 03:24:53;;;;;;;14.50;10.40;;;2.20;92.70;;;;;;4773457;29;20054;-83
2021/01/16 03:27:26;;;;;;;15.20;10.37;;;2.20;92.70;;;;;;4784744;29;20053;-83
2021/01/16 03:29:55;;;;;;;14.83;10.13;;;2.20;92.70;;;;;;4785162;29;20046;-83
2021/01/16 03:32:22;;;;;;;13.40;9.63;;;2.20;92.70;;;;;;4760892;29;20050;-83
2021/01/16 03:34:55;;;;;;;14.40;8.50;;;2.20;92.70;;;;;;4785033;29;20051;-83
2021/01/16 03:37:22;;;;;;;16.00;10.40;;;2.20;92.70;;;;;;4740154;30;20051;-83
2021/01/16 03:40:00;;;;;;;16.17;11.43;;;2.20;92.70;;;;;;4756231;30;20047;-83
2021/01/16 03:42:41;;;;;;;15.68;10.05;;;2.20;92.70;;;;;;4751863;30;20068;-83
2021/01/16 03:45:20;;;;;;;18.83;11.07;;;2.20;92.60;;;;;;4745101;30;20412;-83
2021/01/16 03:47:59;;;;;;;16.10;10.87;;;2.20;92.60;;;;;;4751890;30;20436;-83
2021/01/16 03:50:29;;;;;;;15.37;9.97;;;2.20;92.60;;;;;;4759933;30;20079;-83
2021/01/16 03:53:02;;;;;;;17.43;10.07;;;2.20;92.60;;;;;;4749920;30;20411;-83
2021/01/16 03:55:34;;;;;;;16.17;10.80;;;2.20;92.70;;;;;;4750686;30;20504;-83
2021/01/16 03:58:07;;;;;;;14.00;8.93;;;2.20;92.70;;;;;;4757447;30;20054;-82
2021/01/16 04:00:34;;;;;;;14.93;10.30;;;2.20;92.70;;;;;;4764121;30;20055;-83
2021/01/16 04:03:00;;;;;;;16.00;10.37;;;2.20;92.70;;;;;;4742570;30;20051;-83
2021/01/16 04:05:30;;;;;;;19.20;12.20;;;2.20;92.70;;;;;;4749665;30;20067;-83
2021/01/16 04:07:59;;;;;;;18.87;12.77;;;2.20;92.70;;;;;;4769376;29;20058;-82
2021/01/16 04:10:40;;;;;;;17.37;11.70;;;2.20;92.60;;;;;;4778083;29;20049;-83
2021/01/16 04:13:20;;;;;;;17.60;11.33;;;2.20;92.60;;;;;;4769923;29;20050;-83
2021/01/16 04:16:10;;;;;;;13.60;9.17;;;2.20;92.90;;;;;;4784916;29;20058;-83
2021/01/16 04:18:37;;;;;;;16.17;11.07;;;2.20;92.70;;;;;;4783450;29;20051;-83
2021/01/16 04:21:10;;;;;;;17.40;12.10;;;2.20;92.70;;;;;;4784016;29;20034;-83
2021/01/16 04:23:37;;;;;;;16.20;10.17;;;2.20;92.70;;;;;;4758176;29;20042;-83
2021/01/16 04:26:04;;;;;;;17.00;11.20;;;2.20;92.70;;;;;;4797822;29;20058;-83
2021/01/16 04:28:34;;;;;;;14.87;10.53;;;2.20;92.70;;;;;;4783848;29;20054;-83
2021/01/16 04:31:17;;;;;;;19.53;12.07;;;2.20;92.70;;;;;;4784331;29;20054;-84
2021/01/16 04:33:48;;;;;;;17.30;11.60;;;2.20;92.60;;;;;;4781535;29;20058;-83
2021/01/16 04:36:59;;;;;;;18.23;11.50;;;2.20;92.70;;;;;;4799954;29;20054;-85
2021/01/16 04:39:25;;;;;;;21.13;12.73;;;2.20;92.60;;;;;;4782206;29;20394;-83
2021/01/16 04:41:56;;;;;;;15.03;9.53;;;2.20;92.70;;;;;;4768489;29;20429;-85
2021/01/16 04:44:45;;;;;;;;;;;;;;;;;;;;;
2021/01/16 04:47:32;;;;;;;18.37;11.17;;;2.20;92.70;;;;;;4785617;29;20859;-85
2021/01/16 04:50:26;;;;;;;15.33;10.97;;;2.20;92.70;;;;;;4768363;29;20058;-84
2021/01/16 04:53:19;;;;;;;22.00;14.07;;;2.10;92.70;;;;;;4794604;29;20061;-84
2021/01/16 04:56:22;;;;;;;24.47;14.40;;;2.20;92.70;;;;;;4771309;29;20050;-84
2021/01/16 04:59:33;;;;;;;21.57;13.50;;;2.20;92.70;;;;;;4795926;29;20177;-82
2021/01/16 05:02:12;;;;;;;20.83;13.20;;;2.20;92.70;;;;;;4795988;29;20043;-83
2021/01/16 05:04:45;;;;;;;20.23;12.63;;;2.10;92.70;;;;;;4797252;29;20066;-84
2021/01/16 05:07:13;;;;;;;18.10;11.80;;;2.10;92.70;;;;;;4794210;29;20415;-83
2021/01/16 05:09:52;;;;;;;15.70;11.00;;;2.10;92.70;;;;;;4780096;29;20075;-83
2021/01/16 05:12:57;;;;;;;19.07;11.50;;;2.10;92.70;;;;;;4777870;29;20054;-85
2021/01/16 05:15:39;;;;;;;;;;;2.20;92.80;;;;;;4797289;29;20059;-84
2021/01/16 05:18:18;;;;;;;15.60;11.23;;;2.20;92.80;;;;;;4796899;29;19921;-82
2021/01/16 05:20:49;;;;;;;15.10;9.93;;;2.20;92.80;;;;;;4783199;29;20038;-86
2021/01/16 05:23:54;;;;;;;13.50;8.60;;;2.10;92.80;;;;;;4789552;29;20058;-85
2021/01/16 05:26:46;;;;;;;13.57;9.43;;;2.20;92.80;;;;;;4781407;29;20600;-86
2021/01/16 05:29:34;;;;;;;18.70;11.27;;;2.20;92.80;;;;;;4780512;29;20042;-85
2021/01/16 05:32:15;;;;;;;16.23;11.85;;;2.20;92.80;;;;;;4808023;29;20061;-86
2021/01/16 05:34:57;;;;;;;15.67;8.63;;;2.10;92.80;;;;;;4790921;29;20065;-86
2021/01/16 05:37:53;;;;;;;14.40;8.27;;;2.20;92.90;;;;;;4780736;29;20059;-87
2021/01/16 05:40:31;;;;;;;17.90;10.63;;;2.20;92.90;;;;;;4791503;29;20198;-87
2021/01/16 05:43:03;;;;;;;16.57;11.20;;;2.20;92.90;;;;;;4763425;29;20050;-87
2021/01/16 05:45:50;;;;;;;15.13;10.60;;;2.20;92.90;;;;;;4784836;29;20046;-87
2021/01/16 05:48:30;;;;;;;12.93;9.17;;;2.20;92.90;;;;;;4769752;29;20069;-87
2021/01/16 05:51:06;;;;;;;19.57;12.67;;;2.20;93.00;;;;;;4785448;29;20103;-87
2021/01/16 05:53:41;;;;;;;17.90;12.30;;;2.20;92.90;;;;;;4785547;29;20447;-86
2021/01/16 05:56:24;;;;;;;22.10;14.43;;;2.20;93.20;;;;;;4785110;29;20046;-86
2021/01/16 05:59:03;;;;;;;19.53;14.03;;;2.20;92.80;;;;;;4801120;29;20055;-85
2021/01/16 06:01:37;;;;;;;17.60;11.07;;;2.20;92.80;;;;;;4785756;29;20058;-84
2021/01/16 06:04:04;;;;;;;17.93;11.77;;;2.20;92.80;;;;;;4764547;29;20047;-84
2021/01/16 06:06:35;;;;;;;18.57;12.67;;;2.20;92.90;;;;;;4777141;29;20039;-84
2021/01/16 06:09:04;;;;;;;13.83;9.67;;;2.20;92.90;;;;;;4786247;29;20042;-84
2021/01/16 06:11:38;;;;;;;16.77;11.53;;;2.10;92.80;;;;;;4800320;29;20319;-85
2021/01/16 06:14:12;;;;;;;15.80;11.07;;;2.20;92.90;;;;;;4799324;29;20069;-84
2021/01/16 06:16:53;;;;;;;16.57;11.00;;;2.20;92.90;;;;;;4798855;29;20062;-84
2021/01/16 06:19:27;;;;;;;18.57;10.87;;;2.20;92.90;;;;;;4787029;29;20042;-84
2021/01/16 06:21:54;;;;;;;18.50;11.97;;;2.20;92.90;;;;;;4785083;29;20510;-85
2021/01/16 06:24:22;;;;;;;19.50;11.73;;;2.20;92.80;;;;;;4785953;29;20042;-84
2021/01/16 06:27:00;;;;;;;20.37;11.90;;;2.20;92.80;;;;;;4785526;29;20043;-84
2021/01/16 06:29:35;;;;;;;18.77;12.57;;;2.20;92.80;;;;;;4786360;29;20046;-84
2021/01/16 06:32:10;;;;;;;17.50;11.00;;;2.20;92.80;;;;;;4785898;29;20051;-84
2021/01/16 06:34:40;;;;;;;19.97;13.10;;;2.10;92.70;;;;;;4785393;29;20059;-85
2021/01/16 06:37:14;;;;;;;18.63;11.60;;;2.20;92.80;;;;;;4786696;29;20050;-84
2021/01/16 06:39:47;;;;;;;14.93;10.00;;;2.20;92.80;;;;;;4769942;29;20047;-85
2021/01/16 06:42:31;;;;;;;18.42;11.13;;;2.20;92.80;;;;;;4784498;29;20035;-84
2021/01/16 06:45:11;;;;;;;18.27;12.60;;;2.20;92.80;;;;;;4785265;29;20034;-84
2021/01/16 06:47:41;;;;;;;15.13;9.77;;;2.20;92.80;;;;;;4799374;29;20042;-84
2021/01/16 06:50:11;;;;;;;18.27;12.03;;;2.20;92.80;;;;;;4784240;29;20053;-84
2021/01/16 06:52:41;;;;;;;19.43;12.23;;;2.20;92.80;;;;;;4785545;29;20134;-85
2021/01/16 06:55:17;;;;;;;20.00;12.47;;;2.20;92.80;;;;;;4766867;29;20483;-85
2021/01/16 06:57:50;;;;;;;16.00;11.27;;;2.20;92.70;;;;;;4799726;29;20057;-94
2021/01/16 07:00:17;;;;;;;15.70;10.07;;;2.20;92.70;;;;;;4788125;29;20034;-87
2021/01/16 07:02:53;;;;;;;18.37;12.73;;;2.20;92.70;;;;;;4765409;29;20052;-88
2021/01/16 07:05:40;;;;;;;14.23;9.77;;;2.20;92.80;;;;;;4783107;29;20106;-84
2021/01/16 07:08:16;;;;;;;13.77;8.50;;;2.20;92.70;;;;;;4752855;29;20047;-88
2021/01/16 07:10:46;;;;;;;14.35;8.60;;;2.20;92.70;;;;;;4770666;29;20047;-84
2021/01/16 07:20:03;;;;;;;20.27;12.40;;;2.20;92.70;;;;;;4756101;30;20055;-92
2021/01/16 07:23:24;;;;;;;15.67;10.33;;;2.20;92.60;;;;;;4754547;30;20059;-92
2021/01/16 07:26:09;;;;;;;19.87;12.43;;;2.20;92.70;;;;;;4749640;30;20072;-91
2021/01/16 07:29:03;;;;;;;17.03;12.10;;;2.20;92.60;;;;;;4760484;30;20059;-90
2021/01/16 07:32:35;;;;;;;17.97;12.30;;;2.20;92.60;;;;;;4755140;30;20059;-91
2021/01/16 07:35:42;;;;;;;20.40;13.40;;;2.20;92.60;;;;;;4742842;30;20055;-90
2021/01/16 07:39:10;;;;;;;20.40;13.63;;;2.20;92.60;;;;;;4743724;30;20060;-91
2021/01/16 07:46:05;;;;;;;19.90;12.80;;;2.20;92.50;;;;;;4714420;30;20045;-90
2021/01/16 07:49:21;;;;;;;19.92;12.40;;;2.20;92.40;;;;;;4725202;30;20056;-90
2021/01/16 07:51:56;;;;;;;20.33;12.80;;;2.20;92.40;;;;;;4735663;29;20059;-91
2021/01/16 07:54:43;;;;;;;18.67;12.27;;;2.20;92.40;;;;;;4748375;30;20047;-90
2021/01/16 07:57:32;;;;;;;20.00;12.17;;;2.20;92.30;;;;;;4749705;29;20054;-91
2021/01/16 08:04:50;;;;;;;18.48;12.60;;;2.20;92.30;;;;;;4750310;30;20051;-89
2021/01/16 08:07:50;;;;;;;18.70;11.57;;;2.20;92.10;;;;;;4729009;30;20056;-90
2021/01/16 08:10:43;;;;;;;20.80;13.60;;;2.20;92.10;;;;;;4686339;30;20057;-90
2021/01/16 08:21:17;;;;;;;19.73;12.77;;;2.30;92.00;;;;;;4770311;29;20047;-88
2021/01/16 08:24:12;;;;;;;20.47;13.47;;;2.30;91.90;;;;;;4783438;29;20035;-87
2021/01/16 08:27:25;;;;;;;19.40;12.73;;;2.30;91.90;;;;;;4784033;29;20066;-83
2021/01/16 08:30:25;;;;;;;20.77;13.10;;;2.30;91.90;;;;;;4762442;29;20065;-89
2021/01/16 08:33:35;;;;;;;17.43;12.60;;;2.40;91.80;;;;;;4788499;29;20078;-90
2021/01/16 08:47:23;;;;;;;21.00;12.23;;;2.40;91.50;;;;;;4799264;29;20427;-90
2021/01/16 08:50:50;;;;;;;18.83;13.17;;;2.50;91.50;;;;;;4760516;30;20985;-91
2021/01/16 08:53:53;;;;;;;21.27;13.73;;;2.50;91.30;;;;;;4758356;30;20136;-90
2021/01/16 08:57:27;;;;;;;23.60;14.33;;;2.50;91.30;;;;;;4772470;29;20075;-88
2021/01/16 09:00:46;;;;;;;21.17;13.80;;;2.50;91.20;;;;;;4793157;29;20380;-92
2021/01/16 09:04:18;;;;;;;25.17;14.63;;;2.60;91.20;;;;;;4785391;29;20042;-93
2021/01/16 09:07:11;;;;;;;21.60;13.87;;;2.60;91.00;;;;;;4791074;29;20913;-92
2021/01/16 09:10:21;;;;;;;24.23;14.70;;;2.70;91.00;;;;;;4784812;29;20038;-90
2021/01/16 09:13:44;;;;;;;20.10;13.63;;;2.70;90.90;;;;;;4771876;29;20911;-90
2021/01/16 09:16:31;;;;;;;20.43;14.20;;;2.70;90.90;;;;;;4770161;29;20047;-90
2021/01/16 09:19:26;;;;;;;20.83;15.53;;;2.80;90.70;;;;;;4794636;29;20047;-90
2021/01/16 09:22:40;;;;;;;19.47;13.63;;;2.80;90.70;;;;;;4766104;29;20054;-90
2021/01/16 09:25:29;;;;;;;21.70;13.30;;;2.80;90.60;;;;;;4765914;30;20091;-90
2021/01/16 09:28:06;;;;;;;20.07;13.63;;;2.80;90.60;;;;;;4777110;29;20403;-88
2021/01/16 09:30:41;;;;;;;20.10;13.33;;;2.90;90.70;;;;;;4762332;29;20042;-90
2021/01/16 09:33:48;;;;;;;17.17;12.70;;;2.90;90.70;;;;;;4775758;29;20433;-90
2021/01/16 09:37:00;;;;;;;19.90;12.80;;;2.90;90.70;;;;;;4783283;29;20513;-90
2021/01/16 09:39:34;;;;;;;21.07;14.07;;;3.00;90.60;;;;;;4782631;29;20055;-83
2021/01/16 09:42:21;;;;;;;21.57;14.53;;;3.00;90.40;;;;;;4771625;29;20438;-84
2021/01/16 09:44:50;;;;;;;22.97;15.00;;;3.00;90.30;;;;;;4797743;29;20062;-85
2021/01/16 09:47:27;;;;;;;22.40;14.13;;;3.00;90.30;;;;;;4764050;29;20043;-85
2021/01/16 09:50:20;;;;;;;21.63;14.77;;;3.00;90.20;;;;;;4782310;29;20486;-87
2021/01/16 09:52:55;;;;;;;21.63;14.30;;;3.00;90.30;;;;;;4768621;29;20506;-88
2021/01/16 09:55:31;;;;;;;21.17;14.50;;;3.10;90.20;;;;;;4795819;29;20043;-87
2021/01/16 09:57:59;;;;;;;20.83;13.87;;;3.10;90.20;;;;;;4768526;29;20071;-86
2021/01/16 10:00:32;;;;;;;21.50;14.20;;;3.20;90.30;;;;;;4797364;29;20062;-85
2021/01/16 10:03:08;;;;;;;24.00;15.45;;;3.20;90.10;;;;;;4783950;29;20042;-86
2021/01/16 10:05:48;;;;;;;19.63;13.23;;;3.20;90.00;;;;;;4796631;29;20047;-84
2021/01/16 10:08:27;;;;;;;21.97;14.93;;;3.30;89.80;;;;;;4783919;29;20041;-85
2021/01/16 10:10:54;;;;;;;23.70;15.17;;;3.30;89.50;;;;;;4779787;29;20043;-86
2021/01/16 10:13:42;;;;;;;23.47;15.30;;;3.30;89.50;;;;;;4784747;29;20051;-85
2021/01/16 10:16:12;;;;;;;22.17;13.97;;;3.30;89.40;;;;;;4784946;29;20045;-85
2021/01/16 10:19:02;;;;;;;24.53;15.83;;;3.30;89.10;;;;;;4785889;29;20046;-87
2021/01/16 10:21:54;;;;;;;21.37;14.87;;;3.30;88.80;;;;;;4777155;29;20050;-85
2021/01/16 10:24:22;;;;;;;22.87;14.43;;;3.30;88.90;;;;;;4786088;29;20030;-89
2021/01/16 10:26:56;;;;;;;29.90;19.53;;;3.30;89.00;;;;;;4784133;29;20054;-82
2021/01/16 10:29:30;;;;;;;22.87;14.23;;;3.30;89.00;;;;;;4764360;29;20043;-89
2021/01/16 10:32:24;;;;;;;25.23;16.10;;;3.30;89.00;;;;;;4802928;29;20055;-84
2021/01/16 10:34:58;;;;;;;27.50;18.73;;;3.30;89.00;;;;;;4794361;29;20411;-85
2021/01/16 10:37:31;;;;;;;26.93;16.30;;;3.40;89.10;;;;;;4785103;29;20526;-83
2021/01/16 10:40:04;;;;;;;25.80;16.38;;;3.40;89.00;;;;;;4769867;29;20042;-88
2021/01/16 10:42:44;;;;;;;25.37;17.07;;;3.40;88.80;;;;;;4771477;29;20039;-87
2021/01/16 10:45:13;;;;;;;23.90;16.07;;;3.40;87.30;;;;;;4785370;29;20398;-87
2021/01/16 10:47:46;;;;;;;25.63;16.67;;;3.40;87.10;;;;;;4784949;29;20046;-86
2021/01/16 10:50:25;;;;;;;21.80;14.60;;;3.40;87.00;;;;;;4785058;29;20562;-84
2021/01/16 10:53:06;;;;;;;25.13;16.57;;;3.40;87.10;;;;;;4768675;29;20070;-82
2021/01/16 10:55:56;;;;;;;22.67;15.17;;;3.50;86.80;;;;;;4767656;29;20043;-88
2021/01/16 10:58:26;;;;;;;24.27;15.80;;;3.50;86.70;;;;;;4785431;29;20042;-88
2021/01/16 11:00:57;;;;;;;28.03;17.23;;;3.50;86.10;;;;;;4784179;29;20038;-85
2021/01/16 11:03:27;;;;;;;28.20;18.25;;;3.50;85.70;;;;;;4779196;29;20035;-87
2021/01/16 11:06:02;;;;;;;25.50;16.60;;;3.50;85.30;;;;;;4784342;29;20050;-85
2021/01/16 11:08:31;;;;;;;25.57;15.43;;;3.50;85.00;;;;;;4772083;29;20046;-84
2021/01/16 11:11:24;;;;;;;29.57;16.60;;;3.50;85.00;;;;;;4784444;29;20388;-86
2021/01/16 11:13:54;;;;;;;25.53;15.17;;;3.60;84.60;;;;;;4783693;29;20051;-84
2021/01/16 11:16:29;;;;;;;25.40;15.83;;;3.60;84.50;;;;;;4771924;29;20043;-85
2021/01/16 11:19:10;;;;;;;23.20;14.80;;;3.60;84.00;;;;;;4764515;29;20483;-84
2021/01/16 11:21:37;;;;;;;23.27;15.07;;;3.60;83.40;;;;;;4788693;29;20043;-85
2021/01/16 11:24:45;;;;;;;21.67;14.87;;;3.60;82.90;;;;;;4784725;29;20050;-86
2021/01/16 11:27:17;;;;;;;23.07;15.23;;;3.60;83.30;;;;;;4765560;29;20392;-85
2021/01/16 11:29:47;;;;;;;23.40;13.70;;;3.60;82.90;;;;;;4799206;29;20035;-87
2021/01/16 11:32:33;;;;;;;24.00;13.90;;;3.60;82.80;;;;;;4799371;29;20047;-87
2021/01/16 11:35:14;;;;;;;21.92;12.70;;;3.60;82.00;;;;;;4781786;29;20038;-85
2021/01/16 11:37:48;;;;;;;20.07;12.50;;;3.60;82.00;;;;;;4800286;29;20051;-86
2021/01/16 11:40:21;;;;;;;16.73;11.60;;;3.60;81.60;;;;;;4800220;29;20059;-84
2021/01/16 11:43:03;;;;;;;17.60;12.17;;;3.60;81.90;;;;;;4785381;29;20065;-85
2021/01/16 11:45:35;;;;;;;19.17;11.80;;;3.70;81.90;;;;;;4784621;29;20038;-86
2021/01/16 11:48:06;;;;;;;20.37;12.47;;;3.70;81.90;;;;;;4767343;29;20047;-86
2021/01/16 11:50:35;;;;;;;17.40;11.73;;;3.70;81.40;;;;;;4799759;29;20050;-86
2021/01/16 11:53:08;;;;;;;16.70;9.93;;;3.70;80.90;;;;;;4767582;29;20054;-85
2021/01/16 11:56:02;;;;;;;15.83;10.27;;;3.70;81.20;;;;;;4774587;29;20050;-82
2021/01/16 11:58:41;;;;;;;18.53;11.20;;;3.70;81.10;;;;;;4784217;29;20414;-81
2021/01/16 12:01:08;;;;;;;16.43;10.90;;;3.70;81.00;;;;;;4799589;29;20919;-86
2021/01/16 12:03:39;;;;;;;16.63;10.43;;;3.70;81.20;;;;;;4785347;29;20479;-87
2021/01/16 12:06:18;;;;;;;17.47;10.80;;;3.70;81.10;;;;;;4786140;29;20051;-86
2021/01/16 12:08:46;;;;;;;14.87;10.47;;;3.70;80.40;;;;;;4799480;29;20055;-85
2021/01/16 12:11:14;;;;;;;18.07;10.93;;;3.70;80.50;;;;;;4770826;29;20046;-86
2021/01/16 12:13:49;;;;;;;14.87;10.23;;;3.70;80.80;;;;;;4775506;29;20043;-86
2021/01/16 12:16:16;;;;;;;20.50;12.23;;;3.70;80.80;;;;;;4785376;29;20467;-86
2021/01/16 12:18:46;;;;;;;18.20;12.47;;;3.70;80.60;;;;;;4793277;29;20172;-85
2021/01/16 12:21:13;;;;;;;21.50;11.80;;;3.70;81.00;;;;;;4771738;29;20039;-86
2021/01/16 12:23:48;;;;;;;16.77;11.27;;;3.70;79.30;;;;;;4773870;29;20047;-87
2021/01/16 12:26:17;;;;;;;17.27;11.37;;;3.70;79.60;;;;;;4777869;29;20045;-87
2021/01/16 12:28:49;;;;;;;17.57;11.30;;;3.70;79.80;;;;;;4789077;29;20043;-83
2021/01/16 12:31:24;;;;;;;17.00;10.98;;;3.70;79.30;;;;;;4805105;29;20051;-84
2021/01/16 12:33:53;;;;;;;14.27;9.73;;;3.70;79.40;;;;;;4784223;29;20051;-83
2021/01/16 12:36:21;;;;;;;16.27;10.27;;;3.70;79.40;;;;;;4788963;29;20062;-81
2021/01/16 12:38:52;;;;;;;16.20;10.63;;;3.80;79.50;;;;;;4755438;29;20055;-82
2021/01/16 12:41:37;;;;;;;18.20;12.47;;;3.80;79.10;;;;;;4802296;29;20047;-89
2021/01/16 12:44:09;;;;;;;22.53;13.37;;;3.80;79.30;;;;;;4773937;29;20031;-85
2021/01/16 12:46:42;;;;;;;20.30;11.20;;;3.80;78.60;;;;;;4793095;29;20377;-87
2021/01/16 12:49:12;;;;;;;15.43;10.43;;;3.80;78.90;;;;;;4793161;29;20573;-84
2021/01/16 12:51:40;;;;;;;15.90;9.83;;;3.80;78.80;;;;;;4771510;29;20066;-83
2021/01/16 12:54:19;;;;;;;16.67;10.30;;;3.80;78.90;;;;;;4764753;29;20054;-85
2021/01/16 12:56:49;;;;;;;15.53;9.60;;;3.80;78.20;;;;;;4796737;29;20057;-84
2021/01/16 12:59:36;;;;;;;14.63;9.67;;;3.80;78.50;;;;;;4781625;29;20051;-87
2021/01/16 13:02:09;;;;;;;15.00;9.57;;;3.80;78.70;;;;;;4783057;29;20042;-86
2021/01/16 13:04:36;;;;;;;18.23;11.55;;;3.70;77.90;;;;;;4760176;29;20043;-84
2021/01/16 13:07:03;;;;;;;15.10;9.10;;;3.70;78.10;;;;;;4783239;29;20047;-86
2021/01/16 13:09:29;;;;;;;15.53;9.20;;;3.70;78.20;;;;;;4785118;29;20049;-86
2021/01/16 13:11:58;;;;;;;16.37;9.80;;;3.70;78.40;;;;;;4797345;29;20050;-86
2021/01/16 13:14:46;;;;;;;14.40;8.43;;;3.70;77.90;;;;;;4781109;29;20050;-86
2021/01/16 13:17:26;;;;;;;11.73;8.27;;;3.60;77.80;;;;;;4770153;29;20051;-85
2021/01/16 13:20:06;;;;;;;12.80;8.23;;;3.60;78.00;;;;;;4796651;29;20047;-85
2021/01/16 13:22:46;;;;;;;12.60;7.27;;;3.60;76.50;;;;;;4781020;29;20042;-86
2021/01/16 13:25:16;;;;;;;10.63;7.63;;;3.50;76.10;;;;;;4798276;29;20054;-86
2021/01/16 13:28:00;;;;;;;12.67;7.07;;;3.40;76.30;;;;;;4768142;29;20043;-85
2021/01/16 13:30:30;;;;;;;9.37;6.73;;;3.40;76.30;;;;;;4780796;29;21084;-85
2021/01/16 13:33:02;;;;;;;11.13;7.17;;;3.40;75.70;;;;;;4783592;29;20062;-84
2021/01/16 13:35:33;;;;;;;10.20;6.90;;;3.40;75.70;;;;;;4780440;29;20059;-84
2021/01/16 13:38:02;;;;;;;15.57;8.23;;;3.40;75.70;;;;;;4768547;29;20511;-86
2021/01/16 13:40:33;;;;;;;13.30;7.77;;;3.30;75.30;;;;;;4783400;29;20280;-86
2021/01/16 13:43:05;;;;;;;12.67;8.53;;;3.30;75.40;;;;;;4783455;29;20035;-86
2021/01/16 13:45:33;;;;;;;11.27;6.93;;;3.30;74.80;;;;;;4813436;29;20065;-85
2021/01/16 13:48:03;;;;;;;10.87;7.70;;;3.30;75.10;;;;;;4800492;29;20047;-85
2021/01/16 13:50:34;;;;;;;10.67;7.13;;;3.30;75.00;;;;;;4800496;29;20091;-88
2021/01/16 13:53:10;;;;;;;11.87;7.20;;;3.30;75.50;;;;;;4800248;29;20050;-86
2021/01/16 13:55:37;;;;;;;12.47;7.97;;;3.30;75.50;;;;;;4774166;29;20046;-80
2021/01/16 13:58:06;;;;;;;14.10;8.10;;;3.30;75.80;;;;;;4771410;29;20062;-82
2021/01/16 14:00:51;;;;;;;10.60;7.27;;;3.40;75.80;;;;;;4800494;29;20042;-85
2021/01/16 14:03:27;;;;;;;12.03;7.73;;;3.30;75.90;;;;;;4788995;29;20050;-80
2021/01/16 14:06:01;;;;;;;11.07;7.30;;;3.40;76.20;;;;;;4785240;29;20043;-80
2021/01/16 14:08:29;;;;;;;9.70;7.27;;;3.40;76.10;;;;;;4785487;29;20077;-82
2021/01/16 14:11:00;;;;;;;10.47;6.93;;;3.30;76.40;;;;;;4773215;29;20039;-82
2021/01/16 14:13:35;;;;;;;10.17;7.03;;;3.30;76.60;;;;;;4786196;29;20050;-81
2021/01/16 14:16:07;;;;;;;13.10;8.53;;;3.30;76.30;;;;;;4798730;29;20059;-82
2021/01/16 14:18:39;;;;;;;13.77;8.30;;;3.30;75.80;;;;;;4785762;29;20130;-82